首页
METAR-TAF:

METAR-TAF

机场 :

帕德博恩/利普施塔特机场

Paderborn-Lippstadt, 德国

纬度: 51-37N, 经度: 008-37E, 海拔: 213米

当前天气观测

该预报发布于1小时和8分钟前的15:50 UTC
风速8节,风向
温度 8°C
湿度 87%
气压 992 hPa
能见度10公里或以上
少量云层高于4000英尺
阴天层高于4500英尺

METAR: EDLP 051550Z 17008KT 9999 FEW040 OVC045 08/06 Q0992

时间: 18:58 (16:58 UTC)

预报

该预报发布于5小时和58分钟前的11:00 UTC
预报有效从05日的 12点(UTC)到 06日的 12点(UTC)
风速14节,风向西南
能见度10公里或以上
多云层高于3000英尺
短暂存在
从 05日的 12点(UTC)到 05日的 20点(UTC)
风速15节,风向西南,有时为25节阵风
多云层高于2000英尺, 积雨云.
阵雨
几率 30% :
短暂存在
从 05日的 13点(UTC)到 05日的 18点(UTC)
风速20节,风向西南,有时为35节阵风
能見度: 4000
多云层高于1200英尺, 积雨云.
雷暴, 雨
成为
从 05日的 18点(UTC)到 05日的 21点(UTC)
风速9节,风向西南
成为
从 06日的 08点(UTC)到 06日的 11点(UTC)
风速15节,风向西南,有时为25节阵风

TAF: EDLP 051100Z 0512/0612 22014KT 9999 BKN030 TEMPO 0512/0520 23015G25KT SHRA BKN020CB PROB30 TEMPO 0513/0518 23020G35KT 4000 TSRA BKN012CB BECMG 0518/0521 22009KT BECMG 0608/0611 22015G25KT

超过4000个机场的气象观测和天气预报(METAR&TAF报告)。

可查询的气象台以黄色和红色小点在地图上表示。

将鼠标移到小点上方,可查看气象台名称。

然后点击查看天气观测和预报。

如需切换地图:点击带黑十字的绿色按钮放大地图;点击带横线的绿色按钮缩小地图;或者点击绿色箭头查看邻近地区的地图。


METAR-TAF: